Uthal Weather



Uthal's Current Weather

Temprature 22.5o scattered clouds

scattered clouds

Rain: 0 %

Min Temprature22.5o
Max Temprature22.5o
Humidity60
Wind Speed1.94 m/h
Sun Rise06:59:38
Sun Set18:33:30
Current Time: 27-Feb-2020 01:04:30
Lat/Lon: 25.81, 66.62




Uthal's Geo Location



Uthal's Weather Forecast

Time Overall Temp Min Temp Max Temp Humidity Wind Speed Rain
27-Feb-2020 (Thu)
02:00:00 scattered clouds 22.500 22.500 22.500 60 1.94 m/h 0 %
05:00:00 broken clouds 21.090 21.090 21.090 64 0.43 m/h 0 %
08:00:00 overcast clouds 22.810 22.810 22.810 55 0.6 m/h 0 %
11:00:00 overcast clouds 27.230 27.230 27.230 34 0.81 m/h 0 %
14:00:00 overcast clouds 31.450 31.450 31.450 19 2.52 m/h 0 %
17:00:00 overcast clouds 31.460 31.460 31.460 19 7.18 m/h 0 %
20:00:00 few clouds 25.440 25.440 25.440 36 5.57 m/h 0 %
23:00:00 clear sky 22.970 22.970 22.970 53 5.38 m/h 0 %
28-Feb-2020 (Fri)
02:00:00 broken clouds 21.810 21.810 21.810 61 2.49 m/h 0 %
05:00:00 scattered clouds 20.860 20.860 20.860 61 0.85 m/h 0 %
08:00:00 few clouds 22.410 22.410 22.410 51 1.44 m/h 0 %
11:00:00 clear sky 27.980 27.980 27.980 29 2.57 m/h 0 %
14:00:00 clear sky 31.320 31.320 31.320 20 3.76 m/h 0 %
17:00:00 clear sky 30.840 30.840 30.840 24 7.88 m/h 0 %
20:00:00 clear sky 25.080 25.080 25.080 38 5.27 m/h 0 %
23:00:00 clear sky 23.160 23.160 23.160 52 5.46 m/h 0 %
29-Feb-2020 (Sat)
02:00:00 clear sky 21.620 21.620 21.620 61 1.52 m/h 0 %
05:00:00 clear sky 20.990 20.990 20.990 50 2.55 m/h 0 %
08:00:00 clear sky 21.770 21.770 21.770 25 3.35 m/h 0 %
11:00:00 clear sky 27.230 27.230 27.230 16 1.93 m/h 0 %
14:00:00 clear sky 30.360 30.360 30.360 13 3.65 m/h 0 %
17:00:00 clear sky 30.700 30.700 30.700 13 2.96 m/h 0 %
20:00:00 clear sky 26.800 26.800 26.800 25 4.13 m/h 0 %
23:00:00 clear sky 22.850 22.850 22.850 41 3.32 m/h 0 %
01-Mar-2020 (Sun)
02:00:00 clear sky 21.260 21.260 21.260 47 1.05 m/h 0 %
05:00:00 clear sky 19.840 19.840 19.840 49 0.06 m/h 0 %
08:00:00 clear sky 22.250 22.250 22.250 40 0.35 m/h 0 %
11:00:00 clear sky 27.710 27.710 27.710 29 2.41 m/h 0 %
14:00:00 clear sky 30.950 30.950 30.950 19 3.89 m/h 0 %
17:00:00 clear sky 30.950 30.950 30.950 19 4.82 m/h 0 %
20:00:00 clear sky 25.460 25.460 25.460 37 5.72 m/h 0 %
23:00:00 clear sky 23.610 23.610 23.610 40 1.24 m/h 0 %
02-Mar-2020 (Mon)
02:00:00 clear sky 22.480 22.480 22.480 42 1.84 m/h 0 %
05:00:00 clear sky 20.360 20.360 20.360 49 0.87 m/h 0 %
08:00:00 clear sky 22.370 22.370 22.370 42 0.26 m/h 0 %
11:00:00 clear sky 27.070 27.070 27.070 29 1.11 m/h 0 %
14:00:00 clear sky 30.620 30.620 30.620 19 3.12 m/h 0 %
17:00:00 clear sky 30.750 30.750 30.750 17 6.28 m/h 0 %
20:00:00 clear sky 26.700 26.700 26.700 23 5.27 m/h 0 %
23:00:00 clear sky 24.330 24.330 24.330 28 3.17 m/h 0 %

Famous Cities (61)